Time;durP1;ratioP1;P1;durP2;ratioP2;P2;SDS_P1;SDS_P2;PMS_P1;PMS_P2;Temp;Humidity;BMP_temperature;BMP_pressure;BME280_temperature;BME280_humidity;BME280_pressure;Samples;Min_cycle;Max_cycle;Signal;HPM_P1;HPM_P2
2023/02/26 00:04:27;;;;;;;2.70;0.77;;;14.80;57.90;;;;;;10321591;28;20105;-59
2023/02/26 00:09:28;;;;;;;1.77;0.90;;;14.80;57.80;;;;;;10321353;28;20015;-59
2023/02/26 00:14:29;;;;;;;1.60;0.77;;;14.80;57.70;;;;;;10304808;28;20065;-58
2023/02/26 00:19:30;;;;;;;1.38;0.75;;;14.90;57.70;;;;;;10320712;28;20355;-59
2023/02/26 00:24:30;;;;;;;1.95;0.90;;;14.90;57.60;;;;;;10320571;28;20037;-58
2023/02/26 00:29:32;;;;;;;1.85;1.00;;;14.80;57.90;;;;;;10320594;28;20113;-59
2023/02/26 00:34:33;;;;;;;1.70;0.75;;;14.80;58.00;;;;;;10344208;28;20518;-58
2023/02/26 00:40:06;;;;;;;1.98;0.70;;;14.80;58.00;;;;;;10360056;28;20037;-59
2023/02/26 00:45:09;;;;;;;1.27;0.80;;;14.90;57.90;;;;;;10360480;28;20030;-58
2023/02/26 00:50:24;;;;;;;2.45;0.90;;;14.90;57.80;;;;;;10360310;28;20030;-58
2023/02/26 00:55:24;;;;;;;1.60;0.73;;;14.90;57.70;;;;;;10360294;28;20569;-58
2023/02/26 01:00:25;;;;;;;1.27;0.80;;;15.00;57.60;;;;;;10361023;28;20030;-58
2023/02/26 01:05:26;;;;;;;1.73;0.85;;;15.00;57.70;;;;;;10359758;28;20080;-58
2023/02/26 01:10:28;;;;;;;2.45;0.57;;;14.90;57.70;;;;;;10360148;28;20045;-58
2023/02/26 01:15:29;;;;;;;1.90;0.70;;;14.90;57.90;;;;;;10360187;28;20054;-58
2023/02/26 01:20:40;;;;;;;2.35;1.02;;;14.90;57.90;;;;;;10360197;28;20022;-58
2023/02/26 01:25:57;;;;;;;1.40;0.75;;;15.00;57.80;;;;;;10360670;28;20493;-59
2023/02/26 01:31:04;;;;;;;3.85;0.88;;;15.00;57.70;;;;;;10362900;28;20106;-59
2023/02/26 01:36:35;;;;;;;1.98;0.90;;;14.70;58.30;;;;;;10361681;28;20045;-58
2023/02/26 01:41:45;;;;;;;2.58;0.80;;;14.80;58.90;;;;;;10374812;28;20042;-58
2023/02/26 01:47:15;;;;;;;2.20;0.77;;;14.90;57.80;;;;;;10361419;28;20634;-58
2023/02/26 01:52:34;;;;;;;2.03;1.08;;;15.00;57.70;;;;;;10369599;28;20026;-58
2023/02/26 01:57:35;;;;;;;1.75;0.70;;;15.10;57.40;;;;;;10367636;28;20033;-58
2023/02/26 02:02:36;;;;;;;1.80;0.80;;;15.10;57.40;;;;;;10369394;28;20034;-58
2023/02/26 02:07:36;;;;;;;1.58;0.70;;;15.10;57.40;;;;;;10368187;28;20462;-58
2023/02/26 02:13:25;;;;;;;1.52;0.85;;;15.10;57.20;;;;;;10369934;28;20097;-58
2023/02/26 02:19:01;;;;;;;1.63;0.80;;;15.20;57.20;;;;;;10368722;28;20046;-58
2023/02/26 02:24:34;;;;;;;1.88;0.60;;;15.20;57.20;;;;;;10370486;28;20026;-58
2023/02/26 02:30:21;;;;;;;1.10;0.68;;;15.10;57.60;;;;;;10369162;28;20465;-58
2023/02/26 02:35:37;;;;;;;1.20;0.57;;;15.10;57.70;;;;;;10368359;28;20050;-58
2023/02/26 02:40:43;;;;;;;1.55;0.80;;;15.10;57.40;;;;;;10368620;28;20018;-58
2023/02/26 02:46:22;;;;;;;1.50;0.70;;;15.10;57.40;;;;;;10368633;28;20056;-58
2023/02/26 02:51:45;;;;;;;0.93;0.57;;;15.20;57.20;;;;;;10369301;28;20034;-58
2023/02/26 02:56:55;;;;;;;2.28;0.60;;;15.20;57.50;;;;;;10367957;28;20068;-57
2023/02/26 03:02:22;;;;;;;2.42;0.85;;;15.10;57.60;;;;;;10366377;28;20033;-58
2023/02/26 03:07:23;;;;;;;3.70;1.45;;;15.20;57.60;;;;;;10367564;28;20030;-58
2023/02/26 03:12:30;;;;;;;2.72;0.70;;;15.20;57.30;;;;;;10351477;28;20563;-58
2023/02/26 03:18:05;;;;;;;1.00;0.57;;;15.20;57.20;;;;;;10367153;28;20161;-57
2023/02/26 03:23:34;;;;;;;1.25;0.60;;;15.20;57.40;;;;;;10366782;28;20044;-59
2023/02/26 03:28:51;;;;;;;1.45;0.68;;;15.20;57.60;;;;;;10367768;28;20342;-58
2023/02/26 03:34:16;;;;;;;1.70;0.77;;;15.20;57.50;;;;;;10366742;28;20033;-58
2023/02/26 03:39:36;;;;;;;0.73;0.50;;;15.20;57.40;;;;;;10366072;28;20033;-58
2023/02/26 03:44:43;;;;;;;;;;;15.30;57.40;;;;;;10366541;28;20022;-58
2023/02/26 03:50:06;;;;;;;1.55;0.55;;;15.30;57.10;;;;;;10366019;28;19909;-58
2023/02/26 03:55:20;;;;;;;1.40;0.50;;;15.30;57.40;;;;;;10365767;28;20615;-58
2023/02/26 04:00:20;;;;;;;2.05;0.47;;;15.20;57.40;;;;;;10365507;28;20045;-58
2023/02/26 04:05:30;;;;;;;2.30;0.63;;;15.30;57.30;;;;;;10365207;28;20041;-58
2023/02/26 04:10:54;;;;;;;1.83;1.02;;;15.30;57.20;;;;;;10364639;28;20049;-58
2023/02/26 04:15:54;;;;;;;1.25;0.63;;;15.40;57.20;;;;;;10364977;28;20481;-59
2023/02/26 04:20:55;;;;;;;1.35;0.50;;;15.40;57.70;;;;;;10364871;28;20104;-58
2023/02/26 04:25:56;;;;;;;1.52;0.50;;;15.30;57.40;;;;;;10364261;28;20092;-58
2023/02/26 04:30:56;;;;;;;3.03;0.70;;;15.30;57.30;;;;;;10366120;28;20014;-58
2023/02/26 04:35:58;;;;;;;1.60;0.68;;;15.30;57.20;;;;;;10365591;28;20050;-58
2023/02/26 04:40:58;;;;;;;1.98;0.65;;;15.40;57.00;;;;;;10365283;28;20073;-58
2023/02/26 04:45:59;;;;;;;1.45;0.68;;;15.40;57.00;;;;;;10364208;28;20022;-58
2023/02/26 04:51:00;;;;;;;0.93;0.40;;;15.50;56.80;;;;;;10363729;28;20420;-58
2023/02/26 04:56:01;;;;;;;3.20;0.60;;;15.50;57.40;;;;;;10363209;28;20018;-58
2023/02/26 05:01:01;;;;;;;1.20;0.50;;;15.50;57.00;;;;;;10363404;28;20680;-57
2023/02/26 05:06:02;;;;;;;1.10;0.50;;;15.40;57.10;;;;;;10363466;28;20112;-58
2023/02/26 05:11:03;;;;;;;0.85;0.40;;;15.40;57.60;;;;;;10364516;28;20018;-58
2023/02/26 05:16:06;;;;;;;0.93;0.50;;;15.50;56.90;;;;;;10364264;28;20022;-58
2023/02/26 05:21:06;;;;;;;1.15;0.52;;;15.50;56.90;;;;;;10363347;28;20029;-58
2023/02/26 05:26:07;;;;;;;2.42;0.50;;;15.40;57.00;;;;;;10370172;28;20033;-58
2023/02/26 05:31:08;;;;;;;1.05;0.60;;;15.40;57.00;;;;;;10372532;28;20038;-58
2023/02/26 05:36:09;;;;;;;0.73;0.40;;;15.50;56.90;;;;;;10370842;28;20081;-58
2023/02/26 05:41:09;;;;;;;1.92;0.50;;;15.50;56.80;;;;;;10372395;28;20100;-58
2023/02/26 05:46:10;;;;;;;1.15;0.50;;;15.50;56.90;;;;;;10370068;28;20038;-58
2023/02/26 05:51:11;;;;;;;0.80;0.43;;;15.40;57.00;;;;;;10370864;28;20018;-57
2023/02/26 05:56:12;;;;;;;2.05;0.50;;;15.50;56.80;;;;;;10350575;28;20125;-58
2023/02/26 06:01:13;;;;;;;0.80;0.40;;;15.50;56.70;;;;;;10364565;28;20026;-58
2023/02/26 06:06:16;;;;;;;0.50;0.30;;;15.60;56.60;;;;;;10362465;28;20053;-58
2023/02/26 06:11:17;;;;;;;0.65;0.45;;;15.50;56.80;;;;;;10353648;28;20041;-58
2023/02/26 06:16:19;;;;;;;0.90;0.47;;;15.50;56.80;;;;;;10333594;28;20101;-57
2023/02/26 06:21:20;;;;;;;0.93;0.47;;;15.60;56.70;;;;;;10345955;28;20049;-59
2023/02/26 06:26:20;;;;;;;0.70;0.50;;;15.60;56.60;;;;;;10367082;28;20524;-58
2023/02/26 06:31:21;;;;;;;2.78;0.40;;;15.60;56.60;;;;;;10366665;28;20161;-59
2023/02/26 06:36:21;;;;;;;6.57;0.88;;;15.60;57.00;;;;;;10368127;28;20128;-61
2023/02/26 06:41:22;;;;;;;13.65;1.95;;;15.30;57.90;;;;;;10347958;28;20014;-60
2023/02/26 06:46:23;;;;;;;9.77;1.52;;;15.00;58.00;;;;;;10398474;28;20022;-59
2023/02/26 06:51:23;;;;;;;7.60;1.63;;;15.30;57.50;;;;;;10366221;28;20014;-59
2023/02/26 06:56:24;;;;;;;12.73;2.78;;;15.30;58.10;;;;;;10352378;28;20022;-57
2023/02/26 07:01:26;;;;;;;13.52;1.83;;;15.40;59.50;;;;;;10354142;28;20180;-57
2023/02/26 07:06:26;;;;;;;9.18;1.55;;;15.50;59.00;;;;;;10363438;28;20026;-58
2023/02/26 07:11:27;;;;;;;14.15;1.65;;;15.60;60.00;;;;;;10355505;28;20592;-56
2023/02/26 07:16:28;;;;;;;17.58;1.80;;;15.60;59.50;;;;;;10366214;28;20107;-58
2023/02/26 07:21:28;;;;;;;19.52;1.80;;;15.60;60.10;;;;;;10378164;28;20038;-58
2023/02/26 07:26:29;;;;;;;27.15;2.30;;;15.40;59.40;;;;;;10352763;28;20058;-58
2023/02/26 07:31:30;;;;;;;9.02;1.48;;;15.50;58.90;;;;;;10349825;28;20096;-58
2023/02/26 07:36:30;;;;;;;10.93;1.83;;;15.60;58.50;;;;;;10348264;28;20522;-57
2023/02/26 07:41:31;;;;;;;30.35;3.08;;;15.60;57.50;;;;;;10354254;28;20021;-56
2023/02/26 07:46:32;;;;;;;17.73;1.92;;;15.50;58.00;;;;;;10343979;28;20026;-57
2023/02/26 07:51:33;;;;;;;22.30;3.15;;;15.50;57.80;;;;;;10358521;28;20072;-56
2023/02/26 07:56:34;;;;;;;7.13;1.73;;;15.70;57.40;;;;;;10352807;28;20029;-57
2023/02/26 08:01:35;;;;;;;12.88;2.30;;;15.80;57.20;;;;;;10365378;28;20113;-56
2023/02/26 08:06:36;;;;;;;7.68;1.02;;;15.80;57.60;;;;;;10358227;28;20026;-55
2023/02/26 08:11:39;;;;;;;10.40;2.95;;;15.80;58.00;;;;;;10366655;28;20021;-55
2023/02/26 08:16:40;;;;;;;12.73;1.65;;;15.80;58.10;;;;;;10366245;28;20110;-50
2023/02/26 08:21:40;;;;;;;8.20;0.90;;;15.90;57.30;;;;;;10366181;28;20026;-52
2023/02/26 08:26:41;;;;;;;7.05;1.08;;;16.00;56.80;;;;;;10341118;28;20022;-54
2023/02/26 08:31:42;;;;;;;13.18;1.77;;;15.90;57.20;;;;;;10355569;28;20371;-52
2023/02/26 08:36:42;;;;;;;11.85;2.03;;;16.00;57.70;;;;;;10339155;28;20053;-52
2023/02/26 08:41:43;;;;;;;11.02;1.77;;;16.00;57.60;;;;;;10364714;28;20066;-53
2023/02/26 08:46:44;;;;;;;13.02;1.55;;;16.00;57.00;;;;;;10364742;28;20018;-52
2023/02/26 08:51:44;;;;;;;9.05;1.55;;;16.00;57.10;;;;;;10363528;28;20057;-53
2023/02/26 08:56:45;;;;;;;20.15;3.22;;;16.00;57.40;;;;;;10331938;28;20490;-54
2023/02/26 09:01:46;;;;;;;20.95;3.28;;;15.70;58.20;;;;;;10345838;28;20061;-48
2023/02/26 09:06:47;;;;;;;37.40;5.50;;;16.00;57.70;;;;;;10343259;28;20030;-51
2023/02/26 09:11:47;;;;;;;20.77;4.07;;;16.00;59.20;;;;;;10364116;28;20022;-52
2023/02/26 09:16:48;;;;;;;25.55;4.70;;;15.90;58.60;;;;;;10362330;28;20161;-52
2023/02/26 09:21:49;;;;;;;31.50;4.28;;;15.70;60.80;;;;;;10370295;28;20112;-53
2023/02/26 09:26:49;;;;;;;22.25;4.22;;;15.50;61.40;;;;;;10341835;28;20417;-49
2023/02/26 09:31:50;;;;;;;24.00;4.35;;;15.40;61.50;;;;;;10345610;28;20128;-50
2023/02/26 09:36:51;;;;;;;27.75;3.40;;;15.80;59.90;;;;;;10341178;28;20078;-50
2023/02/26 09:41:56;;;;;;;21.42;3.53;;;15.70;60.50;;;;;;10341789;28;20050;-51
2023/02/26 09:47:03;;;;;;;22.95;3.47;;;15.60;61.60;;;;;;10348604;28;20105;-51
2023/02/26 09:52:24;;;;;;;26.48;4.20;;;15.60;61.80;;;;;;10377801;28;20071;-51
2023/02/26 09:57:35;;;;;;;23.00;3.42;;;15.70;61.00;;;;;;10353383;28;20072;-49
2023/02/26 10:02:46;;;;;;;21.83;3.97;;;15.70;61.60;;;;;;10344991;28;20034;-51
2023/02/26 10:08:02;;;;;;;17.77;3.38;;;15.70;61.90;;;;;;10341071;28;20027;-50
2023/02/26 10:13:04;;;;;;;23.48;5.38;;;15.70;61.90;;;;;;10349383;28;20105;-51
2023/02/26 10:18:23;;;;;;;27.65;5.07;;;15.70;62.40;;;;;;10348756;28;20030;-51
2023/02/26 10:23:50;;;;;;;24.83;3.80;;;15.70;62.90;;;;;;10349109;28;20045;-52
2023/02/26 10:29:20;;;;;;;30.20;4.53;;;15.80;62.40;;;;;;10364271;28;20014;-54
2023/02/26 10:34:24;;;;;;;31.67;4.23;;;15.80;62.60;;;;;;10369351;28;20063;-50
2023/02/26 10:39:47;;;;;;;24.70;4.07;;;15.90;62.00;;;;;;10348522;28;20351;-54
2023/02/26 10:45:34;;;;;;;18.90;5.20;;;15.80;62.60;;;;;;10369119;28;20026;-49
2023/02/26 10:50:37;;;;;;;30.90;4.45;;;15.90;62.50;;;;;;10360394;28;20018;-53
2023/02/26 10:56:00;;;;;;;19.52;3.70;;;15.80;62.80;;;;;;10369120;28;20095;-53
2023/02/26 11:01:01;;;;;;;29.02;4.78;;;15.90;62.60;;;;;;10366623;28;20057;-54
2023/02/26 11:06:04;;;;;;;17.05;3.75;;;15.80;62.90;;;;;;10368518;28;20034;-50
2023/02/26 11:11:05;;;;;;;40.72;6.00;;;15.80;62.70;;;;;;10361959;28;20030;-53
2023/02/26 11:16:17;;;;;;;22.75;5.10;;;15.80;62.90;;;;;;10338892;28;20838;-53
2023/02/26 11:21:24;;;;;;;15.68;2.67;;;15.90;62.50;;;;;;10356001;28;20029;-55
2023/02/26 11:26:34;;;;;;;15.32;3.45;;;16.10;62.80;;;;;;10362249;28;20041;-54
2023/02/26 11:31:35;;;;;;;14.65;3.10;;;16.20;63.00;;;;;;10361691;28;20034;-52
2023/02/26 11:36:40;;;;;;;13.02;2.75;;;16.30;63.50;;;;;;10351954;28;20748;-53
2023/02/26 11:41:45;;;;;;;12.07;2.45;;;16.30;63.40;;;;;;10352103;28;20073;-51
2023/02/26 11:46:55;;;;;;;24.30;2.75;;;16.40;63.60;;;;;;10350392;28;20768;-51
2023/02/26 11:52:21;;;;;;;16.80;3.50;;;16.40;63.50;;;;;;10346385;28;20057;-53
2023/02/26 11:57:27;;;;;;;13.63;3.22;;;16.50;63.60;;;;;;10353755;28;20054;-53
2023/02/26 12:02:36;;;;;;;15.43;3.03;;;16.50;63.80;;;;;;10360177;28;20110;-53
2023/02/26 12:07:37;;;;;;;15.20;3.03;;;16.50;64.00;;;;;;10369103;28;20128;-51
2023/02/26 12:13:25;;;;;;;17.08;3.25;;;16.50;64.00;;;;;;10354969;28;20083;-51
2023/02/26 12:18:48;;;;;;;16.23;2.50;;;16.60;63.60;;;;;;10359336;28;20092;-52
2023/02/26 12:24:47;;;;;;;14.05;2.80;;;16.60;64.00;;;;;;10346806;28;20073;-48
2023/02/26 12:30:36;;;;;;;10.68;2.00;;;16.60;63.90;;;;;;10353487;28;20034;-51
2023/02/26 12:35:58;;;;;;;18.30;3.67;;;16.70;63.60;;;;;;10332732;28;20034;-48
2023/02/26 12:41:42;;;;;;;34.70;5.03;;;16.70;63.80;;;;;;10332564;28;20072;-53
2023/02/26 12:47:03;;;;;;;32.88;3.90;;;16.60;64.10;;;;;;10365267;28;20045;-51
2023/02/26 12:52:30;;;;;;;39.47;4.90;;;16.60;64.80;;;;;;10341505;28;20014;-53
2023/02/26 12:58:40;;;;;;;30.80;5.47;;;16.60;65.40;;;;;;10361041;28;20474;-48
2023/02/26 13:04:00;;;;;;;23.70;3.75;;;16.60;66.40;;;;;;10337355;28;20444;-52
2023/02/26 13:09:59;;;;;;;40.20;4.97;;;16.70;65.60;;;;;;10350486;28;20022;-52
2023/02/26 13:15:39;;;;;;;36.67;5.25;;;16.90;65.60;;;;;;10365708;28;20469;-52
2023/02/26 13:21:00;;;;;;;33.13;4.72;;;17.00;65.50;;;;;;10352510;28;20037;-52
2023/02/26 13:26:09;;;;;;;35.50;4.90;;;17.10;65.90;;;;;;10352974;28;20030;-52
2023/02/26 13:31:28;;;;;;;26.40;4.70;;;17.00;65.80;;;;;;10351276;28;20022;-48
2023/02/26 13:36:29;;;;;;;38.40;7.22;;;17.00;66.00;;;;;;10347080;28;20050;-51
2023/02/26 13:41:42;;;;;;;30.38;4.32;;;17.00;65.70;;;;;;10359018;28;20044;-48
2023/02/26 13:47:11;;;;;;;38.72;6.15;;;17.00;65.00;;;;;;10348411;28;20030;-47
2023/02/26 13:52:31;;;;;;;48.07;7.30;;;17.10;64.80;;;;;;10351233;28;20037;-53
2023/02/26 13:57:52;;;;;;;;;;;17.10;64.70;;;;;;10365160;28;20030;-52
2023/02/26 14:02:57;;;;;;;22.55;4.20;;;17.00;64.40;;;;;;10342079;28;19921;-54
2023/02/26 14:08:01;;;;;;;31.20;4.90;;;17.00;64.20;;;;;;10362446;28;20049;-52
2023/02/26 14:13:17;;;;;;;25.13;4.07;;;16.90;64.00;;;;;;10352212;28;20100;-53
2023/02/26 14:18:41;;;;;;;40.95;5.93;;;16.80;64.10;;;;;;10367995;28;20042;-51
2023/02/26 14:23:47;;;;;;;29.00;4.53;;;16.70;64.50;;;;;;10380609;28;20124;-53
2023/02/26 14:29:04;;;;;;;25.48;5.15;;;16.70;64.70;;;;;;10377202;28;20050;-54
2023/02/26 14:34:20;;;;;;;14.77;3.47;;;16.70;64.20;;;;;;10354997;28;20050;-54
2023/02/26 14:39:45;;;;;;;18.25;3.60;;;16.60;64.60;;;;;;10366043;28;20042;-52
2023/02/26 14:44:53;;;;;;;14.00;3.63;;;16.60;64.40;;;;;;10356084;28;20030;-54
2023/02/26 14:49:59;;;;;;;16.05;3.28;;;16.70;64.00;;;;;;10359090;28;20026;-53
2023/02/26 14:55:28;;;;;;;8.50;2.00;;;16.70;63.80;;;;;;10363263;28;20072;-54
2023/02/26 15:00:45;;;;;;;11.27;2.30;;;16.60;63.90;;;;;;10361850;28;20041;-51
2023/02/26 15:06:17;;;;;;;9.00;2.33;;;16.60;63.60;;;;;;10368107;28;20492;-51
2023/02/26 15:11:58;;;;;;;6.65;1.75;;;16.50;63.70;;;;;;10363833;28;20057;-52
2023/02/26 15:17:35;;;;;;;7.97;1.63;;;16.50;63.00;;;;;;10353251;28;20014;-53
2023/02/26 15:23:17;;;;;;;9.85;1.70;;;16.50;62.60;;;;;;10367605;28;20034;-49
2023/02/26 15:28:37;;;;;;;9.63;3.00;;;16.40;62.50;;;;;;10365444;28;20347;-55
2023/02/26 15:33:38;;;;;;;8.30;1.85;;;16.40;62.80;;;;;;10350912;28;20018;-53
2023/02/26 15:38:54;;;;;;;11.13;2.22;;;16.40;63.10;;;;;;10358298;28;20054;-52
2023/02/26 15:44:09;;;;;;;21.02;2.75;;;16.60;62.60;;;;;;10361946;28;20030;-52
2023/02/26 15:49:24;;;;;;;9.75;1.95;;;16.40;62.90;;;;;;10348988;28;20026;-53
2023/02/26 15:54:39;;;;;;;6.85;1.80;;;16.40;63.30;;;;;;10345010;28;20052;-53
2023/02/26 15:59:47;;;;;;;12.82;2.63;;;16.50;64.10;;;;;;10352552;28;20010;-53
2023/02/26 16:04:48;;;;;;;32.83;4.57;;;16.70;62.10;;;;;;10349701;28;20048;-51
2023/02/26 16:09:52;;;;;;;32.67;5.35;;;16.60;63.00;;;;;;10350471;28;20040;-55
2023/02/26 16:14:58;;;;;;;18.92;2.92;;;16.60;63.70;;;;;;10351439;28;20026;-53
2023/02/26 16:20:05;;;;;;;22.15;2.65;;;16.60;62.50;;;;;;10339471;28;20060;-53
2023/02/26 16:25:16;;;;;;;31.27;4.65;;;16.60;63.10;;;;;;10379209;28;20378;-53
2023/02/26 16:30:22;;;;;;;22.05;3.75;;;16.50;64.20;;;;;;10357228;28;20025;-54
2023/02/26 16:35:37;;;;;;;28.77;3.50;;;16.30;64.10;;;;;;10356847;28;20070;-53
2023/02/26 16:40:40;;;;;;;27.77;4.38;;;16.30;63.60;;;;;;10360441;28;20034;-53
2023/02/26 16:45:49;;;;;;;16.73;3.17;;;16.30;61.30;;;;;;10355031;28;20061;-53
2023/02/26 16:51:10;;;;;;;37.45;4.95;;;16.40;60.60;;;;;;10345235;28;20024;-51
2023/02/26 16:56:16;;;;;;;27.25;4.80;;;16.50;62.30;;;;;;10344663;28;20363;-51
2023/02/26 17:01:21;;;;;;;21.48;5.03;;;16.20;61.30;;;;;;10351113;28;20018;-55
2023/02/26 17:06:22;;;;;;;21.55;4.28;;;16.30;60.80;;;;;;10346400;28;20026;-53
2023/02/26 17:11:31;;;;;;;24.45;3.65;;;16.30;57.90;;;;;;10345687;28;20712;-53
2023/02/26 17:16:32;;;;;;;;;;;16.50;57.70;;;;;;10363155;28;20033;-51
2023/02/26 17:21:33;;;;;;;13.70;4.60;;;16.70;57.90;;;;;;10345433;28;19910;-49
2023/02/26 17:26:34;;;;;;;9.32;3.00;;;16.40;58.70;;;;;;10348187;28;20065;-48
2023/02/26 17:31:34;;;;;;;9.88;3.53;;;16.40;57.50;;;;;;10351137;28;20029;-52
2023/02/26 17:36:35;;;;;;;12.55;3.95;;;16.50;56.90;;;;;;10347155;28;20125;-52
2023/02/26 17:41:43;;;;;;;11.48;3.83;;;17.00;54.90;;;;;;10343420;28;20165;-53
2023/02/26 17:46:44;;;;;;;10.77;3.60;;;17.20;55.10;;;;;;10339775;28;20081;-53
2023/02/26 17:51:45;;;;;;;6.78;2.05;;;17.10;55.40;;;;;;10363826;28;20862;-52
2023/02/26 17:56:45;;;;;;;9.02;3.58;;;16.80;57.70;;;;;;10363571;28;20061;-56
2023/02/26 18:01:46;;;;;;;11.98;2.08;;;16.70;56.90;;;;;;10343743;28;20030;-56
2023/02/26 18:06:47;;;;;;;9.85;2.53;;;17.10;56.80;;;;;;10340443;28;20118;-55
2023/02/26 18:11:48;;;;;;;9.07;1.80;;;17.20;57.40;;;;;;10342275;28;20025;-55
2023/02/26 18:16:49;;;;;;;7.85;2.08;;;17.20;56.80;;;;;;10345804;28;20109;-55
2023/02/26 18:21:50;;;;;;;6.60;2.20;;;17.20;56.40;;;;;;10350271;28;20018;-54
2023/02/26 18:26:51;;;;;;;6.90;1.90;;;17.20;56.50;;;;;;10362578;28;20029;-55
2023/02/26 18:31:52;;;;;;;8.05;2.10;;;17.20;56.20;;;;;;10356303;28;20018;-55
2023/02/26 18:36:52;;;;;;;6.82;1.50;;;17.20;56.10;;;;;;10368400;28;20506;-54
2023/02/26 18:41:53;;;;;;;6.32;1.50;;;17.20;56.20;;;;;;10369453;28;20030;-55
2023/02/26 18:46:54;;;;;;;4.95;1.80;;;17.20;56.10;;;;;;10356414;28;20038;-56
2023/02/26 18:51:54;;;;;;;5.40;1.65;;;17.20;56.20;;;;;;10366381;28;20117;-55
2023/02/26 18:56:55;;;;;;;7.45;1.75;;;17.20;56.40;;;;;;10368782;28;20677;-55
2023/02/26 19:01:56;;;;;;;8.07;2.42;;;17.20;56.60;;;;;;10348788;28;20365;-55
2023/02/26 19:06:57;;;;;;;11.40;3.50;;;17.40;56.60;;;;;;10348617;28;20164;-52
2023/02/26 19:11:57;;;;;;;6.93;3.45;;;17.50;56.80;;;;;;10350363;28;20018;-54
2023/02/26 19:16:58;;;;;;;7.25;3.95;;;17.50;57.00;;;;;;10348565;28;20033;-54
2023/02/26 19:22:00;;;;;;;7.32;3.15;;;17.60;57.00;;;;;;10349360;28;20490;-53
2023/02/26 19:27:01;;;;;;;6.18;3.38;;;17.70;57.00;;;;;;10347535;28;20019;-54
2023/02/26 19:32:03;;;;;;;4.45;2.95;;;17.60;57.00;;;;;;10364584;28;20015;-52
2023/02/26 19:37:04;;;;;;;6.63;3.38;;;17.60;57.10;;;;;;10355961;28;20069;-53
2023/02/26 19:42:05;;;;;;;9.23;4.25;;;17.50;56.90;;;;;;10354607;28;20733;-53
2023/02/26 19:47:06;;;;;;;4.45;2.90;;;17.50;56.90;;;;;;10359879;28;20088;-55
2023/02/26 19:52:07;;;;;;;2.85;2.30;;;17.60;56.80;;;;;;10364800;28;20025;-55
2023/02/26 19:57:08;;;;;;;5.78;2.47;;;17.50;56.90;;;;;;10350529;28;20404;-54
2023/02/26 20:02:09;;;;;;;3.35;2.50;;;17.60;56.70;;;;;;10366433;28;20719;-55
2023/02/26 20:07:09;;;;;;;6.78;3.70;;;17.60;56.70;;;;;;10341554;28;20311;-55
2023/02/26 20:12:10;;;;;;;4.97;2.63;;;17.60;56.80;;;;;;10364376;28;20102;-55
2023/02/26 20:17:11;;;;;;;3.83;2.47;;;17.60;56.80;;;;;;10352331;28;20472;-55
2023/02/26 20:22:11;;;;;;;8.63;2.67;;;17.50;56.80;;;;;;10353058;28;20045;-56
2023/02/26 20:27:12;;;;;;;3.47;2.20;;;17.50;56.80;;;;;;10351056;28;20507;-53
2023/02/26 20:32:13;;;;;;;4.05;2.13;;;17.40;57.10;;;;;;10353636;28;20093;-54
2023/02/26 20:37:14;;;;;;;4.53;2.22;;;17.30;57.60;;;;;;10350719;28;20430;-53
2023/02/26 20:42:15;;;;;;;5.15;2.35;;;17.10;58.10;;;;;;10363764;28;20076;-54
2023/02/26 20:47:16;;;;;;;4.15;2.33;;;16.90;58.60;;;;;;10361428;28;20150;-55
2023/02/26 20:52:17;;;;;;;5.00;2.25;;;16.70;59.10;;;;;;10364609;28;20489;-55
2023/02/26 20:57:18;;;;;;;3.67;2.67;;;16.50;59.60;;;;;;10377815;28;20160;-54
2023/02/26 21:02:19;;;;;;;4.28;3.05;;;16.40;59.90;;;;;;10350703;28;20038;-49
2023/02/26 21:07:20;;;;;;;5.25;2.80;;;16.30;60.30;;;;;;10353210;28;20159;-51
2023/02/26 21:12:21;;;;;;;4.43;1.88;;;16.20;60.60;;;;;;10351911;28;20036;-54
2023/02/26 21:17:23;;;;;;;4.10;2.22;;;16.00;60.70;;;;;;10364294;28;20026;-55
2023/02/26 21:22:24;;;;;;;4.97;2.30;;;16.00;61.00;;;;;;10363860;28;20041;-53
2023/02/26 21:27:25;;;;;;;3.88;2.33;;;15.80;61.20;;;;;;10361917;28;20014;-55
2023/02/26 21:32:25;;;;;;;4.93;2.78;;;15.70;61.40;;;;;;10370637;28;20374;-55
2023/02/26 21:37:26;;;;;;;4.22;2.15;;;15.70;61.50;;;;;;10360655;28;20049;-54
2023/02/26 21:42:29;;;;;;;3.00;2.22;;;15.60;61.60;;;;;;10362859;28;20030;-55
2023/02/26 21:47:29;;;;;;;2.50;1.75;;;15.60;61.80;;;;;;10375350;28;20061;-53
2023/02/26 21:52:30;;;;;;;3.40;1.60;;;15.50;61.80;;;;;;10352092;28;20421;-54
2023/02/26 21:57:31;;;;;;;3.78;2.63;;;15.40;61.70;;;;;;10363176;28;20065;-54
2023/02/26 22:02:32;;;;;;;3.50;1.58;;;15.40;61.80;;;;;;10353192;28;20040;-54
2023/02/26 22:07:32;;;;;;;3.75;1.98;;;15.40;62.10;;;;;;10368461;28;20045;-52
2023/02/26 22:12:33;;;;;;;2.97;1.48;;;15.30;62.10;;;;;;10370652;28;20030;-55
2023/02/26 22:17:34;;;;;;;3.17;2.10;;;15.20;62.10;;;;;;10361891;28;20462;-55
2023/02/26 22:22:36;;;;;;;1.95;1.40;;;15.20;62.10;;;;;;10369018;28;20033;-54
2023/02/26 22:27:37;;;;;;;2.65;1.60;;;15.10;62.40;;;;;;10370118;28;20378;-54
2023/02/26 22:32:38;;;;;;;2.90;1.95;;;15.10;62.50;;;;;;10361763;28;20037;-55
2023/02/26 22:37:41;;;;;;;2.67;1.20;;;15.00;62.50;;;;;;10359070;28;20064;-55
2023/02/26 22:42:42;;;;;;;3.95;1.30;;;15.00;62.70;;;;;;10368908;28;20030;-54
2023/02/26 22:47:45;;;;;;;2.92;1.55;;;14.90;62.80;;;;;;10367952;28;20042;-51
2023/02/26 22:52:46;;;;;;;6.93;2.22;;;14.90;62.90;;;;;;10356648;28;20536;-50
2023/02/26 22:57:46;;;;;;;2.38;1.88;;;14.80;63.00;;;;;;10368365;28;20068;-54
2023/02/26 23:02:48;;;;;;;3.20;1.50;;;14.80;63.20;;;;;;10367400;28;20056;-55
2023/02/26 23:07:49;;;;;;;1.77;1.20;;;14.80;63.40;;;;;;10368013;28;20117;-53
2023/02/26 23:12:50;;;;;;;2.65;1.70;;;14.70;63.20;;;;;;10368488;28;20034;-52
2023/02/26 23:17:51;;;;;;;2.97;1.60;;;14.70;62.90;;;;;;10368183;28;20022;-55
2023/02/26 23:22:52;;;;;;;2.83;1.75;;;14.70;63.30;;;;;;10382638;28;20041;-54
2023/02/26 23:27:52;;;;;;;2.60;1.10;;;14.70;63.40;;;;;;10382752;28;20121;-53
2023/02/26 23:32:55;;;;;;;1.40;1.08;;;14.60;63.30;;;;;;10358669;28;20062;-54
2023/02/26 23:37:55;;;;;;;2.60;1.15;;;14.60;63.40;;;;;;10363515;28;20469;-53
2023/02/26 23:42:56;;;;;;;1.92;1.10;;;14.60;63.40;;;;;;10367338;28;20045;-54
2023/02/26 23:47:57;;;;;;;2.80;1.23;;;14.60;63.30;;;;;;10353720;28;20029;-53
2023/02/26 23:52:57;;;;;;;1.83;1.10;;;14.50;63.40;;;;;;10364939;28;20426;-55
2023/02/26 23:57:58;;;;;;;1.65;0.95;;;14.50;63.30;;;;;;10355006;28;20077;-54
